sensor_id;sensor_type;location;lat;lon;timestamp;P1;durP1;ratioP1;P2;durP2;ratioP2
57401;SDS011;43226;51.110;6.998;2023-03-14T00:01:37;1.73;;;1.40;;
57401;SDS011;43226;51.110;6.998;2023-03-14T00:04:05;2.83;;;1.67;;
57401;SDS011;43226;51.110;6.998;2023-03-14T00:06:31;3.60;;;1.67;;
57401;SDS011;43226;51.110;6.998;2023-03-14T00:08:56;5.70;;;1.77;;
57401;SDS011;43226;51.110;6.998;2023-03-14T00:11:22;2.53;;;1.53;;
57401;SDS011;43226;51.110;6.998;2023-03-14T00:13:48;10.53;;;1.77;;
57401;SDS011;43226;51.110;6.998;2023-03-14T00:16:13;2.80;;;1.80;;
57401;SDS011;43226;51.110;6.998;2023-03-14T00:18:39;5.27;;;2.43;;
57401;SDS011;43226;51.110;6.998;2023-03-14T00:21:04;5.17;;;1.57;;
57401;SDS011;43226;51.110;6.998;2023-03-14T00:23:30;3.87;;;1.60;;
57401;SDS011;43226;51.110;6.998;2023-03-14T00:26:00;2.87;;;1.63;;
57401;SDS011;43226;51.110;6.998;2023-03-14T00:28:25;6.60;;;2.10;;
57401;SDS011;43226;51.110;6.998;2023-03-14T00:30:51;4.00;;;1.77;;
57401;SDS011;43226;51.110;6.998;2023-03-14T00:33:16;2.10;;;1.50;;
57401;SDS011;43226;51.110;6.998;2023-03-14T00:35:41;4.90;;;1.77;;
57401;SDS011;43226;51.110;6.998;2023-03-14T00:38:06;4.57;;;1.47;;
57401;SDS011;43226;51.110;6.998;2023-03-14T00:40:31;8.43;;;1.40;;
57401;SDS011;43226;51.110;6.998;2023-03-14T00:42:57;2.70;;;1.50;;
57401;SDS011;43226;51.110;6.998;2023-03-14T00:45:22;3.67;;;1.70;;
57401;SDS011;43226;51.110;6.998;2023-03-14T00:47:47;2.27;;;1.60;;
57401;SDS011;43226;51.110;6.998;2023-03-14T00:50:13;2.30;;;1.40;;
57401;SDS011;43226;51.110;6.998;2023-03-14T00:52:38;3.93;;;1.43;;
57401;SDS011;43226;51.110;6.998;2023-03-14T00:55:03;9.17;;;2.13;;
57401;SDS011;43226;51.110;6.998;2023-03-14T00:57:29;4.10;;;1.73;;
57401;SDS011;43226;51.110;6.998;2023-03-14T00:59:54;4.10;;;2.20;;
57401;SDS011;43226;51.110;6.998;2023-03-14T01:02:19;4.80;;;0.93;;
57401;SDS011;43226;51.110;6.998;2023-03-14T01:04:46;3.80;;;1.17;;
57401;SDS011;43226;51.110;6.998;2023-03-14T01:07:12;1.43;;;1.20;;
57401;SDS011;43226;51.110;6.998;2023-03-14T01:09:37;4.10;;;1.27;;
57401;SDS011;43226;51.110;6.998;2023-03-14T01:12:02;2.33;;;0.90;;
57401;SDS011;43226;51.110;6.998;2023-03-14T01:14:27;3.43;;;1.20;;
57401;SDS011;43226;51.110;6.998;2023-03-14T01:16:52;5.53;;;1.10;;
57401;SDS011;43226;51.110;6.998;2023-03-14T01:19:18;3.07;;;0.93;;
57401;SDS011;43226;51.110;6.998;2023-03-14T01:21:43;4.60;;;1.20;;
57401;SDS011;43226;51.110;6.998;2023-03-14T01:24:10;9.23;;;1.63;;
57401;SDS011;43226;51.110;6.998;2023-03-14T01:26:35;1.23;;;1.13;;
57401;SDS011;43226;51.110;6.998;2023-03-14T01:29:01;2.67;;;1.20;;
57401;SDS011;43226;51.110;6.998;2023-03-14T01:31:26;3.60;;;1.23;;
57401;SDS011;43226;51.110;6.998;2023-03-14T01:33:52;1.90;;;0.90;;
57401;SDS011;43226;51.110;6.998;2023-03-14T01:36:18;7.57;;;1.20;;
57401;SDS011;43226;51.110;6.998;2023-03-14T01:38:44;2.50;;;1.27;;
57401;SDS011;43226;51.110;6.998;2023-03-14T01:41:13;3.23;;;1.17;;
57401;SDS011;43226;51.110;6.998;2023-03-14T01:43:39;3.07;;;1.33;;
57401;SDS011;43226;51.110;6.998;2023-03-14T01:48:47;3.57;;;1.20;;
57401;SDS011;43226;51.110;6.998;2023-03-14T01:51:36;7.60;;;1.37;;
57401;SDS011;43226;51.110;6.998;2023-03-14T01:54:02;4.90;;;1.20;;
57401;SDS011;43226;51.110;6.998;2023-03-14T01:56:29;2.97;;;1.13;;
57401;SDS011;43226;51.110;6.998;2023-03-14T01:58:55;6.43;;;0.90;;
57401;SDS011;43226;51.110;6.998;2023-03-14T02:01:21;4.20;;;1.30;;
57401;SDS011;43226;51.110;6.998;2023-03-14T02:03:50;2.27;;;1.40;;
57401;SDS011;43226;51.110;6.998;2023-03-14T02:06:17;2.70;;;0.90;;
57401;SDS011;43226;51.110;6.998;2023-03-14T02:08:44;7.23;;;1.67;;
57401;SDS011;43226;51.110;6.998;2023-03-14T02:11:13;3.60;;;1.13;;
57401;SDS011;43226;51.110;6.998;2023-03-14T02:13:38;6.63;;;1.10;;
57401;SDS011;43226;51.110;6.998;2023-03-14T02:16:03;1.90;;;1.20;;
57401;SDS011;43226;51.110;6.998;2023-03-14T02:18:29;8.73;;;1.10;;
57401;SDS011;43226;51.110;6.998;2023-03-14T02:21:00;3.90;;;1.43;;
57401;SDS011;43226;51.110;6.998;2023-03-14T02:23:29;4.93;;;2.07;;
57401;SDS011;43226;51.110;6.998;2023-03-14T02:26:01;2.50;;;1.27;;
57401;SDS011;43226;51.110;6.998;2023-03-14T02:28:28;1.17;;;0.90;;
57401;SDS011;43226;51.110;6.998;2023-03-14T02:30:53;3.00;;;1.10;;
57401;SDS011;43226;51.110;6.998;2023-03-14T02:33:19;1.37;;;1.13;;
57401;SDS011;43226;51.110;6.998;2023-03-14T02:38:21;3.03;;;1.20;;
57401;SDS011;43226;51.110;6.998;2023-03-14T02:40:47;3.83;;;1.60;;
57401;SDS011;43226;51.110;6.998;2023-03-14T02:43:13;5.77;;;1.30;;
57401;SDS011;43226;51.110;6.998;2023-03-14T02:45:40;2.67;;;1.40;;
57401;SDS011;43226;51.110;6.998;2023-03-14T02:48:11;3.03;;;1.50;;
57401;SDS011;43226;51.110;6.998;2023-03-14T02:50:37;3.33;;;1.03;;
57401;SDS011;43226;51.110;6.998;2023-03-14T02:53:03;4.20;;;1.40;;
57401;SDS011;43226;51.110;6.998;2023-03-14T02:55:28;8.20;;;1.20;;
57401;SDS011;43226;51.110;6.998;2023-03-14T02:57:53;3.93;;;1.73;;
57401;SDS011;43226;51.110;6.998;2023-03-14T03:00:19;3.10;;;1.30;;
57401;SDS011;43226;51.110;6.998;2023-03-14T03:02:44;5.00;;;1.37;;
57401;SDS011;43226;51.110;6.998;2023-03-14T03:05:10;4.83;;;1.23;;
57401;SDS011;43226;51.110;6.998;2023-03-14T03:07:35;3.83;;;1.30;;
57401;SDS011;43226;51.110;6.998;2023-03-14T03:10:00;3.03;;;1.10;;
57401;SDS011;43226;51.110;6.998;2023-03-14T03:12:25;2.93;;;1.30;;
57401;SDS011;43226;51.110;6.998;2023-03-14T03:14:51;3.07;;;1.60;;
57401;SDS011;43226;51.110;6.998;2023-03-14T03:17:16;2.73;;;1.30;;
57401;SDS011;43226;51.110;6.998;2023-03-14T03:19:41;5.40;;;1.37;;
57401;SDS011;43226;51.110;6.998;2023-03-14T03:22:06;2.63;;;1.40;;
57401;SDS011;43226;51.110;6.998;2023-03-14T03:24:32;4.00;;;1.10;;
57401;SDS011;43226;51.110;6.998;2023-03-14T03:26:57;1.67;;;1.23;;
57401;SDS011;43226;51.110;6.998;2023-03-14T03:29:22;9.10;;;1.50;;
57401;SDS011;43226;51.110;6.998;2023-03-14T03:31:47;5.07;;;1.40;;
57401;SDS011;43226;51.110;6.998;2023-03-14T03:34:13;3.70;;;1.40;;
57401;SDS011;43226;51.110;6.998;2023-03-14T03:36:38;1.90;;;0.90;;
57401;SDS011;43226;51.110;6.998;2023-03-14T03:39:04;1.97;;;1.17;;
57401;SDS011;43226;51.110;6.998;2023-03-14T03:41:29;4.83;;;1.40;;
57401;SDS011;43226;51.110;6.998;2023-03-14T03:43:54;4.50;;;1.20;;
57401;SDS011;43226;51.110;6.998;2023-03-14T03:46:20;4.67;;;1.37;;
57401;SDS011;43226;51.110;6.998;2023-03-14T03:48:45;10.10;;;1.60;;
57401;SDS011;43226;51.110;6.998;2023-03-14T03:51:12;4.27;;;1.47;;
57401;SDS011;43226;51.110;6.998;2023-03-14T03:53:37;6.43;;;1.87;;
57401;SDS011;43226;51.110;6.998;2023-03-14T03:56:02;2.93;;;1.80;;
57401;SDS011;43226;51.110;6.998;2023-03-14T03:58:28;6.70;;;1.50;;
57401;SDS011;43226;51.110;6.998;2023-03-14T04:00:53;2.43;;;1.33;;
57401;SDS011;43226;51.110;6.998;2023-03-14T04:03:19;4.27;;;1.90;;
57401;SDS011;43226;51.110;6.998;2023-03-14T04:05:44;5.10;;;1.83;;
57401;SDS011;43226;51.110;6.998;2023-03-14T04:08:09;5.60;;;1.70;;
57401;SDS011;43226;51.110;6.998;2023-03-14T04:10:35;2.57;;;1.83;;
57401;SDS011;43226;51.110;6.998;2023-03-14T04:13:00;7.50;;;1.90;;
57401;SDS011;43226;51.110;6.998;2023-03-14T04:15:26;6.90;;;2.07;;
57401;SDS011;43226;51.110;6.998;2023-03-14T04:17:51;1.53;;;1.43;;
57401;SDS011;43226;51.110;6.998;2023-03-14T04:20:20;5.00;;;2.23;;
57401;SDS011;43226;51.110;6.998;2023-03-14T04:22:46;9.83;;;2.40;;
57401;SDS011;43226;51.110;6.998;2023-03-14T04:25:11;5.47;;;1.73;;
57401;SDS011;43226;51.110;6.998;2023-03-14T04:27:36;8.73;;;2.67;;
57401;SDS011;43226;51.110;6.998;2023-03-14T04:30:01;6.97;;;2.33;;
57401;SDS011;43226;51.110;6.998;2023-03-14T04:32:26;5.97;;;2.20;;
57401;SDS011;43226;51.110;6.998;2023-03-14T04:34:52;4.83;;;1.70;;
57401;SDS011;43226;51.110;6.998;2023-03-14T04:37:17;6.23;;;1.70;;
57401;SDS011;43226;51.110;6.998;2023-03-14T04:39:42;6.10;;;1.80;;
57401;SDS011;43226;51.110;6.998;2023-03-14T04:42:07;6.57;;;2.70;;
57401;SDS011;43226;51.110;6.998;2023-03-14T04:44:32;10.47;;;1.87;;
57401;SDS011;43226;51.110;6.998;2023-03-14T04:46:58;7.20;;;2.03;;
57401;SDS011;43226;51.110;6.998;2023-03-14T04:49:23;4.83;;;2.13;;
57401;SDS011;43226;51.110;6.998;2023-03-14T04:51:48;7.73;;;1.60;;
57401;SDS011;43226;51.110;6.998;2023-03-14T04:54:15;6.70;;;1.60;;
57401;SDS011;43226;51.110;6.998;2023-03-14T04:56:41;3.43;;;1.40;;
57401;SDS011;43226;51.110;6.998;2023-03-14T04:59:06;12.13;;;1.90;;
57401;SDS011;43226;51.110;6.998;2023-03-14T05:01:33;3.73;;;1.40;;
57401;SDS011;43226;51.110;6.998;2023-03-14T05:03:58;8.30;;;1.70;;
57401;SDS011;43226;51.110;6.998;2023-03-14T05:06:23;5.10;;;1.40;;
57401;SDS011;43226;51.110;6.998;2023-03-14T05:08:48;4.67;;;1.30;;
57401;SDS011;43226;51.110;6.998;2023-03-14T05:11:14;9.30;;;1.23;;
57401;SDS011;43226;51.110;6.998;2023-03-14T05:13:39;5.23;;;1.13;;
57401;SDS011;43226;51.110;6.998;2023-03-14T05:16:05;3.90;;;1.30;;
57401;SDS011;43226;51.110;6.998;2023-03-14T05:18:30;1.20;;;1.10;;
57401;SDS011;43226;51.110;6.998;2023-03-14T05:20:56;3.60;;;1.10;;
57401;SDS011;43226;51.110;6.998;2023-03-14T05:23:21;5.10;;;1.07;;
57401;SDS011;43226;51.110;6.998;2023-03-14T05:25:46;2.63;;;1.30;;
57401;SDS011;43226;51.110;6.998;2023-03-14T05:28:11;4.20;;;1.10;;
57401;SDS011;43226;51.110;6.998;2023-03-14T05:30:37;5.47;;;1.10;;
57401;SDS011;43226;51.110;6.998;2023-03-14T05:33:02;0.80;;;0.80;;
57401;SDS011;43226;51.110;6.998;2023-03-14T05:35:27;4.53;;;1.63;;
57401;SDS011;43226;51.110;6.998;2023-03-14T05:37:52;4.53;;;1.37;;
57401;SDS011;43226;51.110;6.998;2023-03-14T05:40:17;2.73;;;1.03;;
57401;SDS011;43226;51.110;6.998;2023-03-14T05:42:43;8.83;;;1.93;;
57401;SDS011;43226;51.110;6.998;2023-03-14T05:45:08;2.00;;;0.90;;
57401;SDS011;43226;51.110;6.998;2023-03-14T05:47:33;1.80;;;0.83;;
57401;SDS011;43226;51.110;6.998;2023-03-14T05:49:58;4.93;;;0.90;;
57401;SDS011;43226;51.110;6.998;2023-03-14T05:52:24;1.00;;;1.00;;
57401;SDS011;43226;51.110;6.998;2023-03-14T05:54:49;5.13;;;0.87;;
57401;SDS011;43226;51.110;6.998;2023-03-14T05:57:14;1.70;;;0.90;;
57401;SDS011;43226;51.110;6.998;2023-03-14T05:59:39;1.83;;;1.10;;
57401;SDS011;43226;51.110;6.998;2023-03-14T06:02:05;0.90;;;0.83;;
57401;SDS011;43226;51.110;6.998;2023-03-14T06:04:30;0.80;;;0.80;;
57401;SDS011;43226;51.110;6.998;2023-03-14T06:06:55;2.53;;;0.80;;
57401;SDS011;43226;51.110;6.998;2023-03-14T06:09:20;2.20;;;0.80;;
57401;SDS011;43226;51.110;6.998;2023-03-14T06:11:47;1.63;;;0.80;;
57401;SDS011;43226;51.110;6.998;2023-03-14T06:14:13;1.47;;;0.70;;
57401;SDS011;43226;51.110;6.998;2023-03-14T06:16:38;0.80;;;0.70;;
57401;SDS011;43226;51.110;6.998;2023-03-14T06:19:03;0.60;;;0.60;;
57401;SDS011;43226;51.110;6.998;2023-03-14T06:21:28;1.00;;;0.70;;
57401;SDS011;43226;51.110;6.998;2023-03-14T06:23:54;2.13;;;0.70;;
57401;SDS011;43226;51.110;6.998;2023-03-14T06:26:19;4.87;;;0.93;;
57401;SDS011;43226;51.110;6.998;2023-03-14T06:28:44;2.20;;;0.90;;
57401;SDS011;43226;51.110;6.998;2023-03-14T06:31:09;1.10;;;0.80;;
57401;SDS011;43226;51.110;6.998;2023-03-14T06:33:35;1.10;;;1.00;;
57401;SDS011;43226;51.110;6.998;2023-03-14T06:36:00;1.10;;;0.73;;
57401;SDS011;43226;51.110;6.998;2023-03-14T06:38:25;1.30;;;0.97;;
57401;SDS011;43226;51.110;6.998;2023-03-14T06:40:50;0.83;;;0.80;;
57401;SDS011;43226;51.110;6.998;2023-03-14T06:43:16;1.17;;;1.07;;
57401;SDS011;43226;51.110;6.998;2023-03-14T06:45:41;0.60;;;0.60;;
57401;SDS011;43226;51.110;6.998;2023-03-14T06:48:06;1.57;;;0.67;;
57401;SDS011;43226;51.110;6.998;2023-03-14T06:50:31;2.60;;;0.80;;
57401;SDS011;43226;51.110;6.998;2023-03-14T06:52:57;0.70;;;0.63;;
57401;SDS011;43226;51.110;6.998;2023-03-14T06:55:22;1.37;;;0.90;;
57401;SDS011;43226;51.110;6.998;2023-03-14T06:57:47;2.57;;;1.00;;
57401;SDS011;43226;51.110;6.998;2023-03-14T07:00:13;1.47;;;0.90;;
57401;SDS011;43226;51.110;6.998;2023-03-14T07:02:39;0.73;;;0.70;;
57401;SDS011;43226;51.110;6.998;2023-03-14T07:05:04;1.03;;;0.83;;
57401;SDS011;43226;51.110;6.998;2023-03-14T07:07:29;1.63;;;0.87;;
57401;SDS011;43226;51.110;6.998;2023-03-14T07:09:55;0.70;;;0.70;;
57401;SDS011;43226;51.110;6.998;2023-03-14T07:12:20;0.93;;;0.77;;
57401;SDS011;43226;51.110;6.998;2023-03-14T07:14:45;2.93;;;0.80;;
57401;SDS011;43226;51.110;6.998;2023-03-14T07:17:10;1.10;;;1.00;;
57401;SDS011;43226;51.110;6.998;2023-03-14T07:19:36;1.43;;;0.97;;
57401;SDS011;43226;51.110;6.998;2023-03-14T07:22:02;2.73;;;1.03;;
57401;SDS011;43226;51.110;6.998;2023-03-14T07:24:28;0.60;;;0.60;;
57401;SDS011;43226;51.110;6.998;2023-03-14T07:26:53;0.70;;;0.63;;
57401;SDS011;43226;51.110;6.998;2023-03-14T07:29:18;1.30;;;0.90;;
57401;SDS011;43226;51.110;6.998;2023-03-14T07:31:43;0.70;;;0.70;;
57401;SDS011;43226;51.110;6.998;2023-03-14T07:34:08;1.83;;;0.80;;
57401;SDS011;43226;51.110;6.998;2023-03-14T07:36:34;3.17;;;0.90;;
57401;SDS011;43226;51.110;6.998;2023-03-14T07:38:59;2.83;;;1.13;;
57401;SDS011;43226;51.110;6.998;2023-03-14T07:41:25;1.90;;;0.70;;
57401;SDS011;43226;51.110;6.998;2023-03-14T07:43:50;1.20;;;0.77;;
57401;SDS011;43226;51.110;6.998;2023-03-14T07:46:15;0.80;;;0.80;;
57401;SDS011;43226;51.110;6.998;2023-03-14T07:48:40;1.20;;;0.90;;
57401;SDS011;43226;51.110;6.998;2023-03-14T07:51:06;0.70;;;0.60;;
57401;SDS011;43226;51.110;6.998;2023-03-14T07:53:31;1.20;;;0.80;;
57401;SDS011;43226;51.110;6.998;2023-03-14T07:55:56;0.80;;;0.80;;
57401;SDS011;43226;51.110;6.998;2023-03-14T07:58:21;0.67;;;0.67;;
57401;SDS011;43226;51.110;6.998;2023-03-14T08:00:47;0.70;;;0.70;;
57401;SDS011;43226;51.110;6.998;2023-03-14T08:03:14;0.70;;;0.70;;
57401;SDS011;43226;51.110;6.998;2023-03-14T08:05:39;0.83;;;0.70;;
57401;SDS011;43226;51.110;6.998;2023-03-14T08:08:05;2.60;;;1.10;;
57401;SDS011;43226;51.110;6.998;2023-03-14T08:10:30;0.60;;;0.60;;
57401;SDS011;43226;51.110;6.998;2023-03-14T08:12:56;0.60;;;0.60;;
57401;SDS011;43226;51.110;6.998;2023-03-14T08:15:22;0.70;;;0.67;;
57401;SDS011;43226;51.110;6.998;2023-03-14T08:17:47;2.80;;;1.10;;
57401;SDS011;43226;51.110;6.998;2023-03-14T08:20:16;1.83;;;0.60;;
57401;SDS011;43226;51.110;6.998;2023-03-14T08:22:41;0.77;;;0.77;;
57401;SDS011;43226;51.110;6.998;2023-03-14T08:25:07;1.53;;;0.77;;
57401;SDS011;43226;51.110;6.998;2023-03-14T08:27:32;0.70;;;0.70;;
57401;SDS011;43226;51.110;6.998;2023-03-14T08:29:57;1.33;;;1.00;;
57401;SDS011;43226;51.110;6.998;2023-03-14T08:32:22;0.80;;;0.70;;
57401;SDS011;43226;51.110;6.998;2023-03-14T08:34:48;2.30;;;0.80;;
57401;SDS011;43226;51.110;6.998;2023-03-14T08:37:13;1.30;;;0.80;;
57401;SDS011;43226;51.110;6.998;2023-03-14T08:39:39;0.60;;;0.60;;
57401;SDS011;43226;51.110;6.998;2023-03-14T08:42:04;0.70;;;0.70;;
57401;SDS011;43226;51.110;6.998;2023-03-14T08:44:29;0.90;;;0.83;;
57401;SDS011;43226;51.110;6.998;2023-03-14T08:46:54;1.00;;;1.00;;
57401;SDS011;43226;51.110;6.998;2023-03-14T08:49:20;0.80;;;0.80;;
57401;SDS011;43226;51.110;6.998;2023-03-14T08:51:45;1.20;;;0.80;;
57401;SDS011;43226;51.110;6.998;2023-03-14T08:54:10;0.93;;;0.90;;
57401;SDS011;43226;51.110;6.998;2023-03-14T08:56:37;0.80;;;0.80;;
57401;SDS011;43226;51.110;6.998;2023-03-14T08:59:05;0.80;;;0.80;;
57401;SDS011;43226;51.110;6.998;2023-03-14T09:01:30;1.27;;;1.17;;
57401;SDS011;43226;51.110;6.998;2023-03-14T09:03:55;1.03;;;0.80;;
57401;SDS011;43226;51.110;6.998;2023-03-14T09:06:21;1.13;;;1.07;;
57401;SDS011;43226;51.110;6.998;2023-03-14T09:08:46;1.00;;;0.80;;
57401;SDS011;43226;51.110;6.998;2023-03-14T09:11:11;0.77;;;0.77;;
57401;SDS011;43226;51.110;6.998;2023-03-14T09:13:37;1.33;;;1.20;;
57401;SDS011;43226;51.110;6.998;2023-03-14T09:16:02;1.67;;;1.07;;
57401;SDS011;43226;51.110;6.998;2023-03-14T09:18:28;1.37;;;1.27;;
57401;SDS011;43226;51.110;6.998;2023-03-14T09:20:53;1.00;;;1.00;;
57401;SDS011;43226;51.110;6.998;2023-03-14T09:23:19;0.90;;;0.90;;
57401;SDS011;43226;51.110;6.998;2023-03-14T09:25:45;1.10;;;1.00;;
57401;SDS011;43226;51.110;6.998;2023-03-14T09:28:10;1.20;;;0.93;;
57401;SDS011;43226;51.110;6.998;2023-03-14T09:30:35;0.90;;;0.90;;
57401;SDS011;43226;51.110;6.998;2023-03-14T09:33:01;1.30;;;1.03;;
57401;SDS011;43226;51.110;6.998;2023-03-14T09:35:26;1.33;;;0.90;;
57401;SDS011;43226;51.110;6.998;2023-03-14T09:37:51;1.43;;;0.93;;
57401;SDS011;43226;51.110;6.998;2023-03-14T09:40:17;0.70;;;0.70;;
57401;SDS011;43226;51.110;6.998;2023-03-14T09:42:43;1.37;;;0.70;;
57401;SDS011;43226;51.110;6.998;2023-03-14T09:45:10;0.60;;;0.60;;
57401;SDS011;43226;51.110;6.998;2023-03-14T09:47:37;0.93;;;0.67;;
57401;SDS011;43226;51.110;6.998;2023-03-14T09:50:02;0.70;;;0.60;;
57401;SDS011;43226;51.110;6.998;2023-03-14T09:52:32;1.63;;;0.70;;
57401;SDS011;43226;51.110;6.998;2023-03-14T09:55:33;0.77;;;0.77;;
57401;SDS011;43226;51.110;6.998;2023-03-14T09:57:54;0.70;;;0.70;;
57401;SDS011;43226;51.110;6.998;2023-03-14T10:00:26;1.00;;;1.00;;
57401;SDS011;43226;51.110;6.998;2023-03-14T10:02:56;1.00;;;0.67;;
57401;SDS011;43226;51.110;6.998;2023-03-14T10:05:22;3.83;;;1.83;;
57401;SDS011;43226;51.110;6.998;2023-03-14T10:07:48;1.20;;;0.80;;
57401;SDS011;43226;51.110;6.998;2023-03-14T10:10:15;0.70;;;0.70;;
57401;SDS011;43226;51.110;6.998;2023-03-14T10:12:44;1.87;;;0.70;;
57401;SDS011;43226;51.110;6.998;2023-03-14T10:15:11;0.90;;;0.70;;
57401;SDS011;43226;51.110;6.998;2023-03-14T10:17:43;1.83;;;0.80;;
57401;SDS011;43226;51.110;6.998;2023-03-14T10:22:57;1.13;;;1.03;;
57401;SDS011;43226;51.110;6.998;2023-03-14T10:25:28;1.97;;;0.93;;
57401;SDS011;43226;51.110;6.998;2023-03-14T10:27:54;1.03;;;0.70;;
57401;SDS011;43226;51.110;6.998;2023-03-14T10:33:10;1.30;;;1.13;;
57401;SDS011;43226;51.110;6.998;2023-03-14T10:35:35;1.03;;;0.80;;
57401;SDS011;43226;51.110;6.998;2023-03-14T10:38:02;1.83;;;0.80;;
57401;SDS011;43226;51.110;6.998;2023-03-14T10:40:28;0.77;;;0.70;;
57401;SDS011;43226;51.110;6.998;2023-03-14T10:42:55;1.40;;;1.30;;
57401;SDS011;43226;51.110;6.998;2023-03-14T10:47:54;1.00;;;0.93;;
57401;SDS011;43226;51.110;6.998;2023-03-14T10:52:51;2.50;;;1.10;;
57401;SDS011;43226;51.110;6.998;2023-03-14T10:55:17;1.53;;;1.20;;
57401;SDS011;43226;51.110;6.998;2023-03-14T10:57:42;3.13;;;1.70;;
57401;SDS011;43226;51.110;6.998;2023-03-14T11:00:15;1.23;;;1.13;;
57401;SDS011;43226;51.110;6.998;2023-03-14T11:02:57;3.40;;;1.70;;
57401;SDS011;43226;51.110;6.998;2023-03-14T11:05:29;1.53;;;1.43;;
57401;SDS011;43226;51.110;6.998;2023-03-14T11:07:58;1.30;;;1.20;;
57401;SDS011;43226;51.110;6.998;2023-03-14T11:10:35;1.27;;;1.17;;
57401;SDS011;43226;51.110;6.998;2023-03-14T11:15:50;1.53;;;1.00;;
57401;SDS011;43226;51.110;6.998;2023-03-14T11:23:22;1.53;;;1.10;;
57401;SDS011;43226;51.110;6.998;2023-03-14T11:26:01;1.10;;;0.90;;
57401;SDS011;43226;51.110;6.998;2023-03-14T11:28:37;0.90;;;0.90;;
57401;SDS011;43226;51.110;6.998;2023-03-14T11:31:19;4.87;;;1.30;;
57401;SDS011;43226;51.110;6.998;2023-03-14T11:36:20;3.87;;;1.80;;
57401;SDS011;43226;51.110;6.998;2023-03-14T11:38:47;4.63;;;1.50;;
57401;SDS011;43226;51.110;6.998;2023-03-14T11:41:14;1.70;;;1.40;;
57401;SDS011;43226;51.110;6.998;2023-03-14T11:43:41;3.33;;;1.50;;
57401;SDS011;43226;51.110;6.998;2023-03-14T11:51:44;4.60;;;2.47;;
57401;SDS011;43226;51.110;6.998;2023-03-14T11:56:52;4.07;;;2.50;;
57401;SDS011;43226;51.110;6.998;2023-03-14T11:59:27;6.23;;;2.77;;
57401;SDS011;43226;51.110;6.998;2023-03-14T12:01:54;8.00;;;3.20;;
57401;SDS011;43226;51.110;6.998;2023-03-14T12:07:24;5.87;;;3.00;;
57401;SDS011;43226;51.110;6.998;2023-03-14T12:09:52;9.50;;;3.43;;
57401;SDS011;43226;51.110;6.998;2023-03-14T12:12:20;4.40;;;3.17;;
57401;SDS011;43226;51.110;6.998;2023-03-14T12:14:52;3.60;;;3.23;;
57401;SDS011;43226;51.110;6.998;2023-03-14T12:17:25;6.50;;;2.67;;
57401;SDS011;43226;51.110;6.998;2023-03-14T12:20:00;3.73;;;2.80;;
57401;SDS011;43226;51.110;6.998;2023-03-14T12:22:27;7.77;;;3.87;;
57401;SDS011;43226;51.110;6.998;2023-03-14T12:25:38;6.53;;;3.20;;
57401;SDS011;43226;51.110;6.998;2023-03-14T12:27:48;4.83;;;2.37;;
57401;SDS011;43226;51.110;6.998;2023-03-14T12:32:41;4.57;;;2.27;;
57401;SDS011;43226;51.110;6.998;2023-03-14T12:35:32;2.10;;;1.93;;
57401;SDS011;43226;51.110;6.998;2023-03-14T12:37:52;2.90;;;2.03;;
57401;SDS011;43226;51.110;6.998;2023-03-14T12:40:30;4.20;;;3.10;;
57401;SDS011;43226;51.110;6.998;2023-03-14T12:43:00;1.93;;;1.83;;
57401;SDS011;43226;51.110;6.998;2023-03-14T12:47:56;2.53;;;2.20;;
57401;SDS011;43226;51.110;6.998;2023-03-14T12:50:27;4.40;;;2.47;;
57401;SDS011;43226;51.110;6.998;2023-03-14T12:53:18;2.80;;;2.20;;
57401;SDS011;43226;51.110;6.998;2023-03-14T12:55:56;2.23;;;1.77;;
57401;SDS011;43226;51.110;6.998;2023-03-14T12:58:38;3.70;;;1.90;;
57401;SDS011;43226;51.110;6.998;2023-03-14T13:01:05;1.90;;;1.70;;
57401;SDS011;43226;51.110;6.998;2023-03-14T13:04:06;5.53;;;1.70;;
57401;SDS011;43226;51.110;6.998;2023-03-14T13:11:50;6.63;;;1.80;;
57401;SDS011;43226;51.110;6.998;2023-03-14T13:14:15;2.50;;;1.60;;
57401;SDS011;43226;51.110;6.998;2023-03-14T13:16:40;3.90;;;1.83;;
57401;SDS011;43226;51.110;6.998;2023-03-14T13:19:21;3.00;;;1.50;;
57401;SDS011;43226;51.110;6.998;2023-03-14T13:21:49;5.40;;;2.00;;
57401;SDS011;43226;51.110;6.998;2023-03-14T13:24:22;4.73;;;2.20;;
57401;SDS011;43226;51.110;6.998;2023-03-14T13:26:48;4.63;;;1.27;;
57401;SDS011;43226;51.110;6.998;2023-03-14T13:29:19;5.67;;;1.63;;
57401;SDS011;43226;51.110;6.998;2023-03-14T13:31:48;11.57;;;1.33;;
57401;SDS011;43226;51.110;6.998;2023-03-14T13:34:14;4.57;;;1.33;;
57401;SDS011;43226;51.110;6.998;2023-03-14T13:36:39;4.13;;;1.60;;
57401;SDS011;43226;51.110;6.998;2023-03-14T13:39:06;8.17;;;2.13;;
57401;SDS011;43226;51.110;6.998;2023-03-14T13:41:36;5.60;;;2.07;;
57401;SDS011;43226;51.110;6.998;2023-03-14T13:44:05;3.43;;;1.40;;
57401;SDS011;43226;51.110;6.998;2023-03-14T13:46:33;6.00;;;1.90;;
57401;SDS011;43226;51.110;6.998;2023-03-14T13:48:58;7.40;;;2.30;;
57401;SDS011;43226;51.110;6.998;2023-03-14T13:51:26;3.17;;;2.50;;
57401;SDS011;43226;51.110;6.998;2023-03-14T13:53:56;9.63;;;2.43;;
57401;SDS011;43226;51.110;6.998;2023-03-14T13:56:22;3.40;;;1.90;;
57401;SDS011;43226;51.110;6.998;2023-03-14T13:58:48;16.80;;;2.67;;
57401;SDS011;43226;51.110;6.998;2023-03-14T14:03:42;7.93;;;2.43;;
57401;SDS011;43226;51.110;6.998;2023-03-14T14:06:44;13.43;;;2.27;;
57401;SDS011;43226;51.110;6.998;2023-03-14T14:09:02;6.50;;;1.73;;
57401;SDS011;43226;51.110;6.998;2023-03-14T14:13:55;11.23;;;2.30;;
57401;SDS011;43226;51.110;6.998;2023-03-14T14:16:21;10.87;;;2.53;;
57401;SDS011;43226;51.110;6.998;2023-03-14T14:18:51;10.70;;;2.00;;
57401;SDS011;43226;51.110;6.998;2023-03-14T14:21:16;8.70;;;1.77;;
57401;SDS011;43226;51.110;6.998;2023-03-14T14:23:42;7.17;;;2.27;;
57401;SDS011;43226;51.110;6.998;2023-03-14T14:26:13;9.20;;;1.90;;
57401;SDS011;43226;51.110;6.998;2023-03-14T14:28:39;12.00;;;2.50;;
57401;SDS011;43226;51.110;6.998;2023-03-14T14:33:37;16.73;;;2.45;;
57401;SDS011;43226;51.110;6.998;2023-03-14T14:36:03;6.63;;;1.83;;
57401;SDS011;43226;51.110;6.998;2023-03-14T14:38:28;13.83;;;2.40;;
57401;SDS011;43226;51.110;6.998;2023-03-14T14:40:58;8.47;;;2.03;;
57401;SDS011;43226;51.110;6.998;2023-03-14T14:43:25;7.40;;;2.43;;
57401;SDS011;43226;51.110;6.998;2023-03-14T14:45:52;9.90;;;3.27;;
57401;SDS011;43226;51.110;6.998;2023-03-14T14:48:19;11.87;;;3.83;;
57401;SDS011;43226;51.110;6.998;2023-03-14T14:51:04;7.80;;;2.40;;
57401;SDS011;43226;51.110;6.998;2023-03-14T14:53:31;12.23;;;3.30;;
57401;SDS011;43226;51.110;6.998;2023-03-14T14:56:00;21.63;;;4.10;;
57401;SDS011;43226;51.110;6.998;2023-03-14T14:58:35;10.70;;;2.57;;
57401;SDS011;43226;51.110;6.998;2023-03-14T15:01:13;12.20;;;2.57;;
57401;SDS011;43226;51.110;6.998;2023-03-14T15:03:41;16.70;;;4.80;;
57401;SDS011;43226;51.110;6.998;2023-03-14T15:06:08;12.43;;;4.60;;
57401;SDS011;43226;51.110;6.998;2023-03-14T15:08:33;11.33;;;5.90;;
57401;SDS011;43226;51.110;6.998;2023-03-14T15:10:59;14.13;;;4.67;;
57401;SDS011;43226;51.110;6.998;2023-03-14T15:13:24;14.57;;;4.30;;
57401;SDS011;43226;51.110;6.998;2023-03-14T15:15:50;16.03;;;4.40;;
57401;SDS011;43226;51.110;6.998;2023-03-14T15:18:21;7.60;;;2.83;;
57401;SDS011;43226;51.110;6.998;2023-03-14T15:20:46;10.93;;;2.63;;
57401;SDS011;43226;51.110;6.998;2023-03-14T15:23:13;7.33;;;2.50;;
57401;SDS011;43226;51.110;6.998;2023-03-14T15:25:38;7.80;;;2.40;;
57401;SDS011;43226;51.110;6.998;2023-03-14T15:28:26;10.67;;;2.30;;
57401;SDS011;43226;51.110;6.998;2023-03-14T15:30:53;32.30;;;14.33;;
57401;SDS011;43226;51.110;6.998;2023-03-14T15:33:19;25.17;;;9.33;;
57401;SDS011;43226;51.110;6.998;2023-03-14T15:35:45;8.87;;;3.33;;
57401;SDS011;43226;51.110;6.998;2023-03-14T15:38:13;20.17;;;8.67;;
57401;SDS011;43226;51.110;6.998;2023-03-14T15:40:40;19.50;;;7.97;;